Time;durP1;ratioP1;P1;durP2;ratioP2;P2;SDS_P1;SDS_P2;PMS_P1;PMS_P2;Temp;Humidity;BMP_temperature;BMP_pressure;BME280_temperature;BME280_humidity;BME280_pressure;Samples;Min_cycle;Max_cycle;Signal;HPM_P1;HPM_P2
2023/01/25 00:01:20;;;;;;;;;;;2.10;99.90;;;;;;4977911;28;19948;-77
2023/01/25 00:03:45;;;;;;;;;;;2.10;99.90;;;;;;4978839;28;20465;-76
2023/01/25 00:06:11;;;;;;;;;;;2.10;99.90;;;;;;4980281;28;19917;-77
2023/01/25 00:08:37;;;;;;;;;;;2.10;99.90;;;;;;5004897;28;19909;-77
2023/01/25 00:11:03;;;;;;;;;;;2.10;99.90;;;;;;5022642;28;19912;-77
2023/01/25 00:13:28;;;;;;;;;;;2.20;99.90;;;;;;5040784;28;19909;-77
2023/01/25 00:16:00;;;;;;;;;;;2.20;99.90;;;;;;5025336;28;19942;-77
2023/01/25 00:18:25;;;;;;;;;;;2.30;99.90;;;;;;5041316;28;20137;-77
2023/01/25 00:20:54;;;;;;;;;;;2.20;99.90;;;;;;5041004;28;20271;-77
2023/01/25 00:23:19;;;;;;;;;;;1.50;99.90;;;;;;5023755;28;20178;-77
2023/01/25 00:25:45;;;;;;;;;;;2.20;99.90;;;;;;5025691;28;19908;-77
2023/01/25 00:28:11;;;;;;;;;;;2.30;99.90;;;;;;5042675;28;19913;-77
2023/01/25 00:30:36;;;;;;;;;;;2.20;99.90;;;;;;5042199;28;19920;-77
2023/01/25 00:33:14;;;;;;;;;;;2.30;99.90;;;;;;5041828;28;20214;-76
2023/01/25 00:35:39;;;;;;;;;;;1.00;99.90;;;;;;5045204;28;19917;-77
2023/01/25 00:38:16;;;;;;;;;;;2.10;99.90;;;;;;5043204;28;20272;-77
2023/01/25 00:40:42;;;;;;;;;;;2.10;99.90;;;;;;5023991;28;19959;-77
2023/01/25 00:43:07;;;;;;;;;;;3.70;99.90;;;;;;5026165;28;20186;-77
2023/01/25 00:45:33;;;;;;;;;;;2.00;99.90;;;;;;5043743;28;20027;-77
2023/01/25 00:47:58;;;;;;;;;;;2.40;99.90;;;;;;5042384;28;20102;-77
2023/01/25 00:50:24;;;;;;;;;;;2.00;99.90;;;;;;5043307;28;19924;-77
2023/01/25 00:52:50;;;;;;;;;;;2.00;99.90;;;;;;5043866;28;20178;-77
2023/01/25 00:55:15;;;;;;;;;;;2.00;99.90;;;;;;5024789;28;20469;-77
2023/01/25 00:57:41;;;;;;;;;;;1.90;99.90;;;;;;5025060;28;19934;-77
2023/01/25 01:00:07;;;;;;;;;;;4.10;99.90;;;;;;5042971;28;20000;-77
2023/01/25 01:02:32;;;;;;;;;;;0.70;99.90;;;;;;5041731;28;20379;-77
2023/01/25 01:04:58;;;;;;;;;;;2.10;99.90;;;;;;5042607;28;19908;-76
2023/01/25 01:07:24;;;;;;;;;;;2.20;99.90;;;;;;5045103;28;20405;-77
2023/01/25 01:09:49;;;;;;;;;;;2.10;99.90;;;;;;5043969;28;20194;-77
2023/01/25 01:12:15;;;;;;;;;;;2.20;99.90;;;;;;5028617;28;19978;-77
2023/01/25 01:14:40;;;;;;;;;;;2.30;99.90;;;;;;5048077;28;19909;-77
2023/01/25 01:17:06;;;;;;;;;;;2.30;99.90;;;;;;5048876;28;20552;-77
2023/01/25 01:19:32;;;;;;;;;;;2.30;99.90;;;;;;5030007;28;19966;-77
2023/01/25 01:21:57;;;;;;;;;;;2.30;99.90;;;;;;5047750;28;19922;-77
2023/01/25 01:24:23;;;;;;;;;;;2.30;99.90;;;;;;5047945;28;19935;-77
2023/01/25 01:26:49;;;;;;;;;;;2.30;99.90;;;;;;5046148;28;20295;-77
2023/01/25 01:29:14;;;;;;;;;;;2.30;99.90;;;;;;5045526;28;20403;-77
2023/01/25 01:31:40;;;;;;;;;;;2.30;99.90;;;;;;5045287;28;19995;-76
2023/01/25 01:34:05;;;;;;;;;;;2.30;99.90;;;;;;5045212;28;20277;-77
2023/01/25 01:36:31;;;;;;;;;;;2.30;99.90;;;;;;5045643;28;20376;-77
2023/01/25 01:38:58;;;;;;;;;;;2.30;99.90;;;;;;5044320;28;20249;-77
2023/01/25 01:41:23;;;;;;;;;;;2.30;99.90;;;;;;5027685;28;19916;-77
2023/01/25 01:43:51;;;;;;;;;;;2.30;99.90;;;;;;5027019;28;20167;-77
2023/01/25 01:46:26;;;;;;;;;;;2.20;99.90;;;;;;5045020;28;19909;-77
2023/01/25 01:48:57;;;;;;;;;;;2.20;99.90;;;;;;5043552;28;20514;-77
2023/01/25 01:51:26;;;;;;;;;;;2.20;99.90;;;;;;5026950;28;19982;-77
2023/01/25 01:53:54;;;;;;;;;;;2.20;99.90;;;;;;5044032;28;20054;-77
2023/01/25 01:56:39;;;;;;;;;;;2.20;99.90;;;;;;5044994;28;19955;-78
2023/01/25 01:59:05;;;;;;;;;;;2.20;99.90;;;;;;5044242;28;19956;-76
2023/01/25 02:01:31;;;;;;;;;;;2.20;99.90;;;;;;5045010;28;19975;-76
2023/01/25 02:03:57;;;;;;;;;;;2.20;99.90;;;;;;5044759;28;19956;-77
2023/01/25 02:06:26;;;;;;;;;;;2.20;99.90;;;;;;5043916;28;20448;-77
2023/01/25 02:08:52;;;;;;;;;;;2.20;99.90;;;;;;5045017;28;19908;-77
2023/01/25 02:11:19;;;;;;;;;;;2.30;99.90;;;;;;5027428;28;19909;-76
2023/01/25 02:13:44;;;;;;;;;;;2.30;99.90;;;;;;5044072;28;19919;-77
2023/01/25 02:16:14;;;;;;;;;;;2.20;99.90;;;;;;5043275;28;19909;-77
2023/01/25 02:18:40;;;;;;;;;;;2.20;99.90;;;;;;5025584;28;20248;-77
2023/01/25 02:21:05;;;;;;;;;;;2.20;99.90;;;;;;5043338;28;19913;-77
2023/01/25 02:23:53;;;;;;;;;;;2.20;99.90;;;;;;5043589;28;19913;-76
2023/01/25 02:26:19;;;;;;;;;;;2.20;99.90;;;;;;5026739;28;19913;-77
2023/01/25 02:28:45;;;;;;;;;;;2.20;99.90;;;;;;5044535;28;19920;-77
2023/01/25 02:31:12;;;;;;;;;;;2.10;99.90;;;;;;5027280;28;19920;-77
2023/01/25 02:33:38;;;;;;;;;;;2.20;99.90;;;;;;5026784;28;20250;-77
2023/01/25 02:36:04;;;;;;;;;;;2.20;99.90;;;;;;5045076;28;19909;-77
2023/01/25 02:38:32;;;;;;;;;;;2.40;99.90;;;;;;5043400;28;19984;-76
2023/01/25 02:41:01;;;;;;;;;;;2.20;99.90;;;;;;5043898;28;19913;-76
2023/01/25 02:43:28;;;;;;;;;;;2.10;99.90;;;;;;5043802;28;20019;-77
2023/01/25 02:45:59;;;;;;;;;;;2.10;99.90;;;;;;5043330;28;19909;-78
2023/01/25 02:48:25;;;;;;;;;;;3.90;99.90;;;;;;5026096;28;19944;-76
2023/01/25 02:50:52;;;;;;;;;;;2.00;99.90;;;;;;5044588;28;20468;-76
2023/01/25 02:53:18;;;;;;;;;;;1.30;99.90;;;;;;5026209;28;20012;-77
2023/01/25 02:55:44;;;;;;;;;;;2.00;99.90;;;;;;5027373;28;19981;-77
2023/01/25 02:58:09;;;;;;;;;;;2.10;99.90;;;;;;5025263;28;19919;-77
2023/01/25 03:00:35;;;;;;;;;;;2.00;99.90;;;;;;5042944;28;19925;-77
2023/01/25 03:03:01;;;;;;;;;;;2.10;99.90;;;;;;5042807;28;19959;-76
2023/01/25 03:05:26;;;;;;;;;;;2.00;99.90;;;;;;5043568;28;20003;-77
2023/01/25 03:07:52;;;;;;;;;;;1.80;99.90;;;;;;5044196;28;19909;-76
2023/01/25 03:10:17;;;;;;;;;;;2.10;99.90;;;;;;5024479;28;19966;-77
2023/01/25 03:12:43;;;;;;;;;;;2.10;99.90;;;;;;5024974;28;20432;-77
2023/01/25 03:15:09;;;;;;;;;;;2.00;99.90;;;;;;5042511;28;19915;-77
2023/01/25 03:17:34;;;;;;;;;;;2.10;99.90;;;;;;5042422;28;20007;-77
2023/01/25 03:20:00;;;;;;;;;;;2.10;99.90;;;;;;5042956;28;19912;-77
2023/01/25 03:22:25;;;;;;;;;;;2.00;99.90;;;;;;5044051;28;19978;-77
2023/01/25 03:24:51;;;;;;;;;;;2.00;99.90;;;;;;5042573;28;19920;-77
2023/01/25 03:27:17;;;;;;;;;;;2.00;99.90;;;;;;5043163;28;20654;-77
2023/01/25 03:29:43;;;;;;;;;;;2.00;99.90;;;;;;5044130;28;19917;-76
2023/01/25 03:32:09;;;;;;;;;;;2.00;99.90;;;;;;5042139;28;19939;-77
2023/01/25 03:34:35;;;;;;;;;;;2.00;99.90;;;;;;5041884;28;19916;-77
2023/01/25 03:37:00;;;;;;;;;;;2.00;99.90;;;;;;5024377;28;20652;-78
2023/01/25 03:39:27;;;;;;;;;;;2.00;99.90;;;;;;5041682;28;19935;-77
2023/01/25 03:41:52;;;;;;;;;;;2.10;99.90;;;;;;5022391;28;19917;-77
2023/01/25 03:44:18;;;;;;;;;;;2.10;99.90;;;;;;5042237;28;19935;-77
2023/01/25 03:46:43;;;;;;;;;;;2.00;99.90;;;;;;5040491;28;20334;-76
2023/01/25 03:49:09;;;;;;;;;;;2.10;99.90;;;;;;5041091;28;20496;-76
2023/01/25 03:51:35;;;;;;;;;;;2.10;99.90;;;;;;5023163;28;19958;-77
2023/01/25 03:54:01;;;;;;;;;;;2.10;99.90;;;;;;5041425;28;20371;-77
2023/01/25 03:56:26;;;;;;;;;;;2.10;99.90;;;;;;5040540;28;19917;-77
2023/01/25 03:58:52;;;;;;;;;;;2.10;99.90;;;;;;5041270;28;20376;-77
2023/01/25 04:01:20;;;;;;;;;;;2.10;99.90;;;;;;5040658;28;19921;-77
2023/01/25 04:03:46;;;;;;;;;;;2.10;99.90;;;;;;5041368;28;19948;-77
2023/01/25 04:06:11;;;;;;;;;;;1.10;99.90;;;;;;5041846;28;20442;-76
2023/01/25 04:08:37;;;;;;;;;;;2.10;99.90;;;;;;5041054;28;20326;-77
2023/01/25 04:11:04;;;;;;;;;;;2.80;99.90;;;;;;5023608;28;19967;-77
2023/01/25 04:13:36;;;;;;;;;;;2.20;99.90;;;;;;5041229;28;19948;-77
2023/01/25 04:16:03;;;;;;;;;;;2.20;99.90;;;;;;5023344;28;20233;-77
2023/01/25 04:18:28;;;;;;;;;;;2.50;99.90;;;;;;5041460;28;20206;-76
2023/01/25 04:20:55;;;;;;;;;;;3.30;99.90;;;;;;5041972;28;19940;-77
2023/01/25 04:23:21;;;;;;;;;;;2.00;99.90;;;;;;5025541;28;20000;-77
2023/01/25 04:25:57;;;;;;;;;;;1.90;99.90;;;;;;5042063;28;20510;-77
2023/01/25 04:28:25;;;;;;;;;;;2.00;99.90;;;;;;5042447;28;19913;-77
2023/01/25 04:30:52;;;;;;;;;;;1.90;99.90;;;;;;5023472;28;19994;-77
2023/01/25 04:33:17;;;;;;;;;;;1.90;99.90;;;;;;5041456;28;19908;-77
2023/01/25 04:35:51;;;;;;;;;;;1.90;99.90;;;;;;5043734;28;19980;-77
2023/01/25 04:38:16;;;;;;;;;;;1.90;99.90;;;;;;5024562;28;19909;-77
2023/01/25 04:40:42;;;;;;;;;;;1.90;99.90;;;;;;5041818;28;20149;-77
2023/01/25 04:43:08;;;;;;;;;;;1.80;99.90;;;;;;5040333;28;20375;-77
2023/01/25 04:45:35;;;;;;;;;;;1.80;99.90;;;;;;5041634;28;20099;-77
2023/01/25 04:48:02;;;;;;;;;;;1.90;99.90;;;;;;5027670;28;20240;-77
2023/01/25 04:50:28;;;;;;;;;;;3.00;99.90;;;;;;5045354;28;19913;-77
2023/01/25 04:52:53;;;;;;;;;;;1.90;99.90;;;;;;5027266;28;20185;-77
2023/01/25 04:55:19;;;;;;;;;;;2.00;99.90;;;;;;5044822;28;20340;-77
2023/01/25 04:57:50;;;;;;;;;;;1.90;99.90;;;;;;5044349;28;19939;-77
2023/01/25 05:00:18;;;;;;;;;;;2.00;99.90;;;;;;5044578;28;20011;-77
2023/01/25 05:02:44;;;;;;;;;;;0.80;99.90;;;;;;5026151;28;19921;-77
2023/01/25 05:05:10;;;;;;;;;;;2.00;99.90;;;;;;5045120;28;20535;-78
2023/01/25 05:07:36;;;;;;;;;;;2.00;99.90;;;;;;5043919;28;20399;-77
2023/01/25 05:10:02;;;;;;;;;;;2.00;99.90;;;;;;5025970;28;19908;-77
2023/01/25 05:12:27;;;;;;;;;;;2.00;99.90;;;;;;5026589;28;20174;-77
2023/01/25 05:14:53;;;;;;;;;;;2.00;99.90;;;;;;5025383;28;19944;-77
2023/01/25 05:17:19;;;;;;;;;;;2.00;99.90;;;;;;5044182;28;19909;-77
2023/01/25 05:19:46;;;;;;;;;;;2.60;99.90;;;;;;5026832;28;19921;-77
2023/01/25 05:22:16;;;;;;;;;;;1.00;99.90;;;;;;5045332;28;20063;-77
2023/01/25 05:24:43;;;;;;;;;;;3.50;99.90;;;;;;5044914;28;20312;-77
2023/01/25 05:27:10;;;;;;;;;;;2.00;99.90;;;;;;5044561;28;20107;-77
2023/01/25 05:29:37;;;;;;;;;;;1.90;99.90;;;;;;5045140;28;20012;-77
2023/01/25 05:32:07;;;;;;;;;;;2.00;99.90;;;;;;5043210;28;19912;-77
2023/01/25 05:34:33;;;;;;;;;;;2.00;99.90;;;;;;5044198;28;19909;-77
2023/01/25 05:36:58;;;;;;;;;;;2.00;99.90;;;;;;5026738;28;19920;-77
2023/01/25 05:39:24;;;;;;;;;;;2.80;99.90;;;;;;5044525;28;20011;-77
2023/01/25 05:41:50;;;;;;;;;;;1.90;99.90;;;;;;5045302;28;19917;-77
2023/01/25 05:44:15;;;;;;;;;;;1.90;99.90;;;;;;5030030;28;19909;-77
2023/01/25 05:46:41;;;;;;;;;;;1.90;99.90;;;;;;5046765;28;19955;-77
2023/01/25 05:49:07;;;;;;;;;;;1.90;99.90;;;;;;5028067;28;19937;-78
2023/01/25 05:51:34;;;;;;;;;;;2.00;99.90;;;;;;5027092;28;19912;-77
2023/01/25 05:54:00;;;;;;;;;;;2.00;99.90;;;;;;5046302;28;20004;-77
2023/01/25 05:56:25;;;;;;;;;;;1.90;99.90;;;;;;5043549;28;20085;-77
2023/01/25 05:58:52;;;;;;;;;;;1.90;99.90;;;;;;5044419;28;19935;-78
2023/01/25 06:01:18;;;;;;;;;;;2.00;99.90;;;;;;5044932;28;20126;-77
2023/01/25 06:03:44;;;;;;;;;;;2.00;99.90;;;;;;5044431;28;20276;-77
2023/01/25 06:06:10;;;;;;;;;;;2.00;99.90;;;;;;5045654;28;20004;-77
2023/01/25 06:08:35;;;;;;;;;;;2.00;99.90;;;;;;5043750;28;19908;-76
2023/01/25 06:11:05;;;;;;;;;;;2.00;99.90;;;;;;5044642;28;20529;-77
2023/01/25 06:13:30;;;;;;;;;;;2.00;99.90;;;;;;5025995;28;19909;-77
2023/01/25 06:15:56;;;;;;;;;;;2.10;99.90;;;;;;5025577;28;20402;-77
2023/01/25 06:18:23;;;;;;;;;;;2.10;99.90;;;;;;5026566;28;20314;-77
2023/01/25 06:20:49;;;;;;;;;;;2.00;99.90;;;;;;5044196;28;19971;-77
2023/01/25 06:23:17;;;;;;;;;;;2.10;99.90;;;;;;5026759;28;19923;-77
2023/01/25 06:25:43;;;;;;;;;;;2.10;99.90;;;;;;5025856;28;19913;-77
2023/01/25 06:28:09;;;;;;;;;;;2.10;99.90;;;;;;5044971;28;20011;-77
2023/01/25 06:30:34;;;;;;;;;;;2.00;99.90;;;;;;5044497;28;19912;-77
2023/01/25 06:33:00;;;;;;;;;;;2.10;99.90;;;;;;5044962;28;19909;-77
2023/01/25 06:35:27;;;;;;;;;;;2.10;99.90;;;;;;5050077;28;20382;-77
2023/01/25 06:37:56;;;;;;;;;;;2.10;99.90;;;;;;5043248;28;19920;-77
2023/01/25 06:40:22;;;;;;;;;;;2.10;99.90;;;;;;5025449;28;19936;-77
2023/01/25 06:42:47;;;;;;;;;;;2.10;99.90;;;;;;5025440;28;19912;-77
2023/01/25 06:45:13;;;;;;;;;;;2.10;99.90;;;;;;5042542;28;19916;-76
2023/01/25 06:47:39;;;;;;;;;;;2.00;99.90;;;;;;5042250;28;19916;-77
2023/01/25 06:50:05;;;;;;;;;;;2.00;99.90;;;;;;5043798;28;19920;-77
2023/01/25 06:52:30;;;;;;;;;;;2.00;99.90;;;;;;5023631;28;20305;-78
2023/01/25 06:54:56;;;;;;;;;;;2.00;99.90;;;;;;5023930;28;20265;-77
2023/01/25 06:57:22;;;;;;;;;;;2.00;99.90;;;;;;5024544;28;19917;-78
2023/01/25 06:59:47;;;;;;;;;;;2.10;99.90;;;;;;5042733;28;19919;-77
2023/01/25 07:02:14;;;;;;;;;;;2.00;99.90;;;;;;5023838;28;19932;-78
2023/01/25 07:04:39;;;;;;;;;;;1.90;99.90;;;;;;5024560;28;19909;-77
2023/01/25 07:07:11;;;;;;;;;;;2.00;99.90;;;;;;5042318;28;19966;-76
2023/01/25 07:09:37;;;;;;;;;;;2.00;99.90;;;;;;5043942;28;19915;-77
2023/01/25 07:12:06;;;;;;;;;;;2.10;99.90;;;;;;5024812;28;19913;-77
2023/01/25 07:14:31;;;;;;;;;;;2.10;99.90;;;;;;5041840;28;20412;-77
2023/01/25 07:16:57;;;;;;;;;;;2.00;99.90;;;;;;5024559;28;20043;-77
2023/01/25 07:19:23;;;;;;;;;;;2.20;99.90;;;;;;5023475;28;20001;-76
2023/01/25 07:21:48;;;;;;;;;;;-1.20;99.90;;;;;;5042173;28;19916;-77
2023/01/25 07:24:15;;;;;;;;;;;2.10;99.90;;;;;;5025495;28;19917;-76
2023/01/25 07:26:41;;;;;;;;;;;2.20;99.90;;;;;;5025721;28;19917;-78
2023/01/25 07:29:10;;;;;;;;;;;2.20;99.90;;;;;;5042715;28;20000;-77
2023/01/25 07:31:36;;;;;;;;;;;2.20;99.90;;;;;;5041898;28;19917;-78
2023/01/25 07:34:01;;;;;;;;;;;2.20;99.90;;;;;;5042019;28;20604;-76
2023/01/25 07:36:27;;;;;;;;;;;2.20;99.90;;;;;;5041877;28;19909;-77
2023/01/25 07:38:53;;;;;;;;;;;2.10;99.90;;;;;;5043247;28;20002;-77
2023/01/25 07:41:19;;;;;;;;;;;2.10;99.90;;;;;;5041816;28;19917;-77
2023/01/25 07:43:45;;;;;;;;;;;2.20;99.90;;;;;;5024671;28;19919;-77
2023/01/25 07:46:11;;;;;;;;;;;2.10;99.90;;;;;;5041536;28;20539;-78
2023/01/25 07:48:37;;;;;;;;;;;2.10;99.90;;;;;;5041807;28;19909;-77
2023/01/25 07:51:25;;;;;;;;;;;2.00;99.90;;;;;;5026173;28;19908;-77
2023/01/25 07:53:52;;;;;;;;;;;-0.10;99.90;;;;;;5024774;28;19935;-77
2023/01/25 07:56:19;;;;;;;;;;;2.00;99.90;;;;;;5041785;28;20008;-77
2023/01/25 07:58:45;;;;;;;;;;;2.00;99.90;;;;;;5023838;28;19955;-77
2023/01/25 08:01:14;;;;;;;;;;;2.00;99.90;;;;;;5041841;28;19921;-77
2023/01/25 08:03:40;;;;;;;;;;;2.00;99.90;;;;;;5023813;28;20387;-77
2023/01/25 08:06:06;;;;;;;;;;;2.10;99.90;;;;;;5042197;28;19909;-77
2023/01/25 08:08:35;;;;;;;;;;;2.10;99.90;;;;;;5042112;28;20351;-77
2023/01/25 08:11:06;;;;;;;;;;;2.10;99.90;;;;;;5023481;28;20352;-77
2023/01/25 08:13:32;;;;;;;;;;;2.10;99.90;;;;;;5030350;28;19956;-77
2023/01/25 08:15:57;;;;;;;;;;;2.10;99.90;;;;;;5045220;28;19920;-77
2023/01/25 08:18:24;;;;;;;;;;;2.10;99.90;;;;;;5041944;28;20255;-77
2023/01/25 08:20:50;;;;;;;;;;;2.10;99.90;;;;;;5040405;28;20436;-77
2023/01/25 08:23:15;;;;;;;;;;;2.10;99.90;;;;;;5042479;28;19921;-77
2023/01/25 08:25:41;;;;;;;;;;;2.10;99.90;;;;;;5025894;28;19917;-77
2023/01/25 08:28:06;;;;;;;;;;;2.10;99.90;;;;;;5044007;28;19912;-77
2023/01/25 08:30:32;;;;;;;;;;;2.20;99.90;;;;;;5041587;28;20374;-77
2023/01/25 08:32:58;;;;;;;;;;;2.20;99.90;;;;;;5041936;28;19916;-77
2023/01/25 08:35:23;;;;;;;;;;;2.30;99.90;;;;;;5046519;28;19970;-77
2023/01/25 08:37:49;;;;;;;;;;;2.30;99.90;;;;;;5043532;28;19923;-77
2023/01/25 08:40:15;;;;;;;;;;;2.30;99.90;;;;;;5043017;28;20605;-77
2023/01/25 08:42:42;;;;;;;;;;;2.40;99.90;;;;;;5026728;28;19986;-77
2023/01/25 08:45:08;;;;;;;;;;;2.40;99.90;;;;;;5043992;28;19951;-77
2023/01/25 08:47:33;;;;;;;;;;;2.50;99.90;;;;;;5045756;28;19909;-77
2023/01/25 08:50:01;;;;;;;;;;;2.50;99.90;;;;;;5042970;28;19909;-77
2023/01/25 08:52:27;;;;;;;;;;;1.90;99.90;;;;;;5043052;28;19913;-77
2023/01/25 08:54:56;;;;;;;;;;;2.50;99.90;;;;;;5042359;28;19912;-77
2023/01/25 08:57:21;;;;;;;;;;;2.50;99.90;;;;;;5043349;28;20007;-77
2023/01/25 08:59:47;;;;;;;;;;;4.50;99.90;;;;;;5043725;28;19980;-78
2023/01/25 09:02:13;;;;;;;;;;;2.60;99.90;;;;;;5042814;28;20596;-78
2023/01/25 09:04:38;;;;;;;;;;;2.60;99.90;;;;;;5044585;28;19967;-77
2023/01/25 09:07:04;;;;;;;;;;;2.60;99.90;;;;;;5044875;28;20501;-77
2023/01/25 09:09:30;;;;;;;;;;;2.60;99.90;;;;;;5044990;28;19936;-77
2023/01/25 09:11:56;;;;;;;;;;;2.70;99.90;;;;;;5043389;28;20387;-77
2023/01/25 09:14:22;;;;;;;;;;;2.70;99.90;;;;;;5028247;28;19909;-77
2023/01/25 09:16:47;;;;;;;;;;;2.70;99.90;;;;;;5045232;28;19916;-78
2023/01/25 09:19:13;;;;;;;;;;;2.80;99.90;;;;;;5025052;28;19931;-77
2023/01/25 09:21:39;;;;;;;;;;;2.90;99.90;;;;;;5043580;28;19927;-77
2023/01/25 09:24:05;;;;;;;;;;;2.90;99.90;;;;;;5025408;28;20437;-77
2023/01/25 09:26:34;;;;;;;;;;;3.00;99.90;;;;;;5026752;28;20460;-77
2023/01/25 09:29:00;;;;;;;;;;;2.80;99.90;;;;;;5044485;28;20080;-77
2023/01/25 09:31:26;;;;;;;;;;;3.00;99.90;;;;;;5042409;28;19920;-76
2023/01/25 09:33:51;;;;;;;;;;;3.10;99.90;;;;;;5029798;28;20010;-77
2023/01/25 09:36:17;;;;;;;;;;;3.10;99.90;;;;;;5035208;28;19932;-77
2023/01/25 09:38:44;;;;;;;;;;;3.10;99.90;;;;;;5033879;28;19909;-77
2023/01/25 09:41:20;;;;;;;;;;;3.60;99.90;;;;;;5033884;28;19963;-77
2023/01/25 09:44:06;;;;;;;;;;;2.90;99.90;;;;;;5032523;28;19975;-77
2023/01/25 09:46:43;;;;;;;;;;;3.10;99.90;;;;;;5031481;28;20554;-77
2023/01/25 09:49:27;;;;;;;;;;;3.20;99.90;;;;;;5031534;28;19909;-77
2023/01/25 09:51:52;;;;;;;;;;;3.20;99.90;;;;;;5027986;28;19910;-77
2023/01/25 09:54:21;;;;;;;;;;;2.70;99.90;;;;;;5027429;28;19914;-77
2023/01/25 09:56:48;;;;;;;;;;;5.40;99.90;;;;;;5025823;28;19919;-77
2023/01/25 09:59:16;;;;;;;;;;;3.40;99.90;;;;;;5027171;28;19917;-77
2023/01/25 10:01:51;;;;;;;;;;;3.40;99.90;;;;;;5025643;28;19948;-77
2023/01/25 10:04:18;;;;;;;;;;;3.40;99.90;;;;;;5043437;28;19909;-76
2023/01/25 10:06:58;;;;;;;;;;;3.40;99.90;;;;;;5045317;28;19909;-79
2023/01/25 10:09:46;;;;;;;;;;;3.50;99.90;;;;;;5045509;28;19908;-78
2023/01/25 10:12:18;;;;;;;;;;;3.50;99.90;;;;;;5045274;28;20388;-77
2023/01/25 10:14:44;;;;;;;;;;;3.40;99.90;;;;;;5027218;28;19913;-77
2023/01/25 10:17:21;;;;;;;;;;;3.60;99.90;;;;;;5026429;28;19917;-78
2023/01/25 10:19:47;;;;;;;;;;;0.60;99.90;;;;;;5031290;28;20081;-77
2023/01/25 10:22:15;;;;;;;;;;;3.50;99.90;;;;;;5028000;28;20020;-76
2023/01/25 10:24:44;;;;;;;;;;;3.50;99.90;;;;;;5028803;28;20000;-78
2023/01/25 10:27:09;;;;;;;;;;;3.50;99.90;;;;;;5029085;28;19905;-77
2023/01/25 10:29:44;;;;;;;;;;;3.60;99.90;;;;;;5027235;28;20004;-77
2023/01/25 10:32:09;;;;;;;;;;;3.60;99.90;;;;;;5027795;28;19921;-78
2023/01/25 10:34:37;;;;;;;;;;;3.60;99.90;;;;;;5027903;28;19913;-75
2023/01/25 10:37:14;;;;;;;;;;;3.60;99.90;;;;;;5029534;28;19996;-76
2023/01/25 10:39:50;;;;;;;;;;;3.50;99.90;;;;;;5033934;28;19976;-76
2023/01/25 10:42:17;;;;;;;;;;;3.10;99.90;;;;;;5026931;28;19982;-76
2023/01/25 10:44:42;;;;;;;;;;;3.70;99.90;;;;;;5027243;28;19956;-76
2023/01/25 10:47:11;;;;;;;;;;;3.60;99.90;;;;;;5024619;28;20396;-76
2023/01/25 10:49:50;;;;;;;;;;;3.60;99.90;;;;;;5023040;28;19909;-79
2023/01/25 10:52:17;;;;;;;;;;;2.20;99.90;;;;;;5027602;28;19905;-77
2023/01/25 10:54:43;;;;;;;;;;;3.70;99.90;;;;;;5028414;28;20402;-77
2023/01/25 10:57:12;;;;;;;;;;;3.80;99.90;;;;;;5023496;28;19909;-77
2023/01/25 10:59:38;;;;;;;;;;;3.40;99.90;;;;;;5023508;28;19956;-78
2023/01/25 11:02:36;;;;;;;;;;;3.90;99.90;;;;;;5023315;28;19917;-78
2023/01/25 11:05:17;;;;;;;;;;;4.00;99.90;;;;;;4944146;29;19915;-77
2023/01/25 11:07:43;;;;;;;;;;;4.00;99.90;;;;;;4927964;28;19949;-77
2023/01/25 11:10:27;;;;;;;;;;;4.00;99.90;;;;;;4948221;28;19974;-77
2023/01/25 11:13:11;;;;;;;;;;;4.00;99.90;;;;;;4946677;29;19910;-77
2023/01/25 11:15:37;;;;;;;;;;;4.00;99.90;;;;;;4945841;29;20200;-78
2023/01/25 11:18:06;;;;;;;;;;;3.90;99.90;;;;;;4943981;29;20704;-78
2023/01/25 11:20:32;;;;;;;;;;;3.80;99.90;;;;;;4945370;29;20017;-78
2023/01/25 11:22:57;;;;;;;;;;;3.80;99.90;;;;;;4944498;29;20013;-78
2023/01/25 11:25:23;;;;;;;;;;;3.80;99.90;;;;;;4945174;28;19910;-77
2023/01/25 11:27:48;;;;;;;;;;;3.80;99.90;;;;;;4945052;28;19914;-77
2023/01/25 11:30:16;;;;;;;;;;;3.80;99.90;;;;;;4946252;29;19922;-78
2023/01/25 11:32:41;;;;;;;;;;;3.70;99.90;;;;;;4947546;29;19977;-77
2023/01/25 11:35:14;;;;;;;;;;;3.70;99.90;;;;;;4947656;29;20101;-77
2023/01/25 11:37:47;;;;;;;;;;;3.70;99.90;;;;;;4945039;29;20239;-77
2023/01/25 11:40:16;;;;;;;;;;;3.70;99.90;;;;;;4971001;28;19997;-77
2023/01/25 11:43:00;;;;;;;;;;;3.70;99.90;;;;;;5024265;28;19924;-77
2023/01/25 11:45:36;;;;;;;;;;;3.60;99.90;;;;;;5008703;28;20111;-77
2023/01/25 11:48:14;;;;;;;;;;;3.50;99.90;;;;;;5007861;28;19909;-77
2023/01/25 11:50:46;;;;;;;;;;;3.50;99.90;;;;;;5025627;28;19920;-77
2023/01/25 11:53:11;;;;;;;;;;;3.50;99.90;;;;;;5007279;28;20512;-77
2023/01/25 11:55:48;;;;;;;;;;;3.40;99.90;;;;;;5008002;28;19909;-78
2023/01/25 11:58:22;;;;;;;;;;;3.50;99.90;;;;;;5023079;28;20218;-77
2023/01/25 12:01:00;;;;;;;;;;;3.50;99.90;;;;;;5023379;28;19932;-77
2023/01/25 12:03:41;;;;;;;;;;;3.50;99.90;;;;;;5024768;28;19917;-77
2023/01/25 12:06:09;;;;;;;;;;;3.50;99.90;;;;;;5005510;28;19909;-78
2023/01/25 12:08:44;;;;;;;;;;;4.50;99.90;;;;;;5024210;28;20182;-77
2023/01/25 12:11:28;;;;;;;;;;;3.40;99.90;;;;;;5023276;28;19914;-77
2023/01/25 12:13:56;;;;;;;;;;;2.90;99.90;;;;;;5024179;28;19913;-77
2023/01/25 12:16:22;;;;;;;;;;;3.60;99.90;;;;;;5006282;28;19909;-77
2023/01/25 12:19:09;;;;;;;;;;;3.60;99.90;;;;;;5025051;28;19921;-77
2023/01/25 12:21:54;;;;;;;;;;;3.60;99.90;;;;;;5022713;28;19917;-77
2023/01/25 12:24:32;;;;;;;;;;;3.60;99.90;;;;;;4963908;28;19918;-77
2023/01/25 12:27:16;;;;;;;;;;;3.60;99.90;;;;;;4946254;28;20148;-77
2023/01/25 12:29:55;;;;;;;;;;;3.60;99.90;;;;;;4960682;28;20278;-78
2023/01/25 12:32:27;;;;;;;;;;;4.20;99.90;;;;;;4961788;28;19937;-77
2023/01/25 12:35:01;;;;;;;;;;;3.60;99.90;;;;;;4966950;28;20112;-77
2023/01/25 12:37:31;;;;;;;;;;;4.00;99.90;;;;;;4948414;28;20112;-77
2023/01/25 12:40:02;;;;;;;;;;;3.70;99.90;;;;;;4976339;28;20149;-77
2023/01/25 12:42:31;;;;;;;;;;;3.70;99.90;;;;;;4974792;28;19997;-77
2023/01/25 12:45:14;;;;;;;;;;;3.70;99.90;;;;;;4967900;28;19997;-78
2023/01/25 12:47:46;;;;;;;;;;;4.30;99.90;;;;;;4966846;28;19918;-77
2023/01/25 12:50:20;;;;;;;;;;;3.80;99.90;;;;;;4966675;28;19952;-77
2023/01/25 12:52:48;;;;;;;;;;;3.80;99.90;;;;;;4967254;28;19918;-78
2023/01/25 12:55:16;;;;;;;;;;;3.70;99.90;;;;;;4967135;28;19914;-77
2023/01/25 12:58:00;;;;;;;;;;;3.70;99.90;;;;;;4963036;28;19966;-78
2023/01/25 13:00:44;;;;;;;;;;;3.80;99.90;;;;;;4965093;28;19945;-77
2023/01/25 13:03:29;;;;;;;;;;;1.90;99.90;;;;;;5021615;28;19917;-77
2023/01/25 13:06:07;;;;;;;;;;;3.70;99.90;;;;;;5004976;28;20447;-77
2023/01/25 13:08:35;;;;;;;;;;;3.70;99.90;;;;;;5026817;28;20421;-77
2023/01/25 13:11:04;;;;;;;;;;;3.70;99.90;;;;;;5025979;28;19917;-77
2023/01/25 13:13:30;;;;;;;;;;;3.70;99.90;;;;;;5006928;28;20316;-77
2023/01/25 13:15:55;;;;;;;;;;;3.70;99.90;;;;;;5025229;28;19921;-77
2023/01/25 13:18:27;;;;;;;;;;;3.70;99.90;;;;;;5024480;28;20126;-77
2023/01/25 13:20:57;;;;;;;;;;;3.70;99.90;;;;;;5026283;28;19913;-77
2023/01/25 13:23:45;;;;;;;;;;;3.70;99.90;;;;;;5024235;28;20260;-76
2023/01/25 13:26:20;;;;;;;;;;;3.60;99.90;;;;;;5025051;28;19909;-77
2023/01/25 13:28:47;;;;;;;;;;;3.60;99.90;;;;;;5010259;28;20162;-78
2023/01/25 13:31:33;;;;;;;;;;;3.60;99.90;;;;;;5026225;28;20376;-77
2023/01/25 13:34:01;;;;;;;;;;;3.60;99.90;;;;;;5006307;28;20149;-77
2023/01/25 13:36:42;;;;;;;;;;;3.60;99.90;;;;;;5022535;28;20210;-77
2023/01/25 13:39:25;;;;;;;;;;;3.60;99.90;;;;;;5024557;28;20326;-77
2023/01/25 13:42:00;;;;;;;;;;;3.50;99.90;;;;;;5023508;28;20707;-77
2023/01/25 13:44:27;;;;;;;;;;;3.50;99.90;;;;;;5006764;28;20084;-78
2023/01/25 13:46:53;;;;;;;;;;;1.60;99.90;;;;;;5023984;28;20400;-77
2023/01/25 13:49:26;;;;;;;;;;;3.50;99.90;;;;;;5024854;28;20190;-77
2023/01/25 13:51:51;;;;;;;;;;;3.40;99.90;;;;;;5023919;28;20342;-78
2023/01/25 13:54:17;;;;;;;;;;;3.50;99.90;;;;;;5024422;28;19909;-78
2023/01/25 13:56:43;;;;;;;;;;;3.50;99.90;;;;;;5023823;28;19909;-78
2023/01/25 13:59:35;;;;;;;;;;;3.50;99.90;;;;;;5023475;28;19915;-77
2023/01/25 14:02:01;;;;;;;;;;;3.50;99.90;;;;;;5018734;28;19917;-77
2023/01/25 14:04:28;;;;;;;;;;;3.40;99.90;;;;;;5024499;28;19905;-77
2023/01/25 14:07:08;;;;;;;;;;;3.50;99.90;;;;;;5026126;28;19909;-77
2023/01/25 14:09:34;;;;;;;;;;;3.50;99.90;;;;;;5024703;28;19917;-78
2023/01/25 14:12:02;;;;;;;;;;;3.40;99.90;;;;;;5029561;28;19921;-77
2023/01/25 14:14:34;;;;;;;;;;;3.40;99.90;;;;;;5030631;28;19916;-78
2023/01/25 14:17:03;;;;;;;;;;;3.40;99.90;;;;;;5028805;28;19940;-77
2023/01/25 14:19:35;;;;;;;;;;;3.40;99.90;;;;;;5028381;28;19925;-77
2023/01/25 14:22:13;;;;;;;;;;;3.10;99.90;;;;;;5029194;28;20611;-77
2023/01/25 14:24:38;;;;;;;;;;;3.30;99.90;;;;;;5028261;28;19936;-77
2023/01/25 14:27:04;;;;;;;;;;;3.30;99.90;;;;;;5026690;28;19913;-76
2023/01/25 14:29:31;;;;;;;;;;;3.30;99.90;;;;;;5026399;28;19951;-77
2023/01/25 14:31:58;;;;;;;;;;;3.20;99.90;;;;;;5026827;28;19909;-77
2023/01/25 14:34:25;;;;;;;;;;;3.30;99.90;;;;;;5028668;28;19913;-77
2023/01/25 14:37:03;;;;;;;;;;;3.20;99.90;;;;;;5027109;28;19909;-77
2023/01/25 14:39:32;;;;;;;;;;;3.20;99.90;;;;;;5025778;28;19909;-77